Terminal Aerodrome Forecast
Issued by NWS

Home | Current Version | Previous Version | Text Only | Print | Product List | Glossary On
Versions: 1 2 3 4 5 6 7 8 9 10 11 12 13 14 15 16 17 18 19 20 21 22 23 24 25
609
FTUS41 KCAR 251737
TAFPQI
TAF
KPQI 251737Z 2518/2618 22008G14KT P6SM FEW040 SCT110
     FM260000 22005KT P6SM SKC
     FM260500 VRB03KT P6SM FEW110
     FM261200 26005KT P6SM FEW110=

USA.gov is the U.S. government's official web portal to all federal, state and local government web resources and services.